This is the latest recevied weather packets stored in our database for station/object HG8LXL-2. If no packets are shown the sender has not sent any weather packets the latest 10 day(s).
| Time | Temp. | Humidity | Pressure | Rain* | Wind** | Luminosity | Snow |
|---|---|---|---|---|---|---|---|
| 1777641000 | 21.67° C | 13% | 1021.6 hPa | - | - | - | - |
| 1777640700 | 22.78° C | 13% | 1021.7 hPa | - | - | - | - |
| 1777640400 | 22.78° C | 12% | 1021.7 hPa | - | - | - | - |
| 1777640100 | 22.78° C | 12% | 1021.7 hPa | - | - | - | - |
| 1777639801 | 22.78° C | 13% | 1021.9 hPa | - | - | - | - |
| 1777639500 | 22.22° C | 13% | 1021.9 hPa | - | - | - | - |
| 1777639200 | 22.78° C | 13% | 1021.9 hPa | - | - | - | - |
| 1777638900 | 21.67° C | 14% | 1022.1 hPa | - | - | - | - |
| 1777638600 | 23.33° C | 12% | 1021.9 hPa | - | - | - | - |
| 1777638300 | 22.78° C | 13% | 1022.1 hPa | - | - | - | - |
| 1777638000 | 23.33° C | 13% | 1022.1 hPa | - | - | - | - |
| 1777637700 | 22.22° C | 13% | 1022.1 hPa | - | - | - | - |
| 1777637400 | 22.22° C | 13% | 1022.3 hPa | - | - | - | - |
| 1777637100 | 21.11° C | 14% | 1022.4 hPa | - | - | - | - |
| 1777636800 | 22.22° C | 13% | 1022.3 hPa | - | - | - | - |
| 1777636500 | 21.67° C | 14% | 1022.5 hPa | - | - | - | - |
| 1777636200 | 21.11° C | 14% | 1022.6 hPa | - | - | - | - |
| 1777635900 | 22.78° C | 12% | 1022.5 hPa | - | - | - | - |
| 1777635600 | 21.67° C | 13% | 1022.7 hPa | - | - | - | - |
| 1777635300 | 21.11° C | 14% | 1022.7 hPa | - | - | - | - |
| 1777635000 | 22.78° C | 12% | 1022.5 hPa | - | - | - | - |
| 1777634700 | 22.22° C | 14% | 1022.7 hPa | - | - | - | - |
| 1777634400 | 22.78° C | 13% | 1022.6 hPa | - | - | - | - |
| 1777634100 | 21.67° C | 13% | 1022.9 hPa | - | - | - | - |
| 1777633800 | 21.11° C | 14% | 1022.9 hPa | - | - | - | - |
* Rain since midnight (hover to see other rain measurements)
** Current wind speed in m/s (hover to see current wind gust speed)